Time;durP1;ratioP1;P1;durP2;ratioP2;P2;SDS_P1;SDS_P2;PMS_P1;PMS_P2;Temp;Humidity;BMP_temperature;BMP_pressure;BME280_temperature;BME280_humidity;BME280_pressure;Samples;Min_cycle;Max_cycle;Signal;HPM_P1;HPM_P2
2024/01/17 00:02:02;;;;;;;6.18;2.75;;;;;;;-4.20;70.92;97175.66;5045290;28;20805;-52
2024/01/17 00:04:28;;;;;;;6.15;2.63;;;;;;;-3.94;71.07;97214.09;5073464;28;20143;-54
2024/01/17 00:06:55;;;;;;;2.88;1.73;;;;;;;-3.98;70.87;97209.94;5043753;28;20071;-60
2024/01/17 00:09:21;;;;;;;1.88;1.27;;;;;;;-4.20;70.46;97176.47;5062094;28;20041;-57
2024/01/17 00:12:07;;;;;;;4.07;2.53;;;;;;;-4.01;69.75;97213.34;5076303;28;20371;-53
2024/01/17 00:14:52;;;;;;;5.90;2.15;;;;;;;-4.23;69.96;97180.75;5073790;28;20045;-55
2024/01/17 00:17:18;;;;;;;5.60;3.05;;;;;;;-4.19;70.20;97177.31;5060418;28;20046;-55
2024/01/17 00:19:45;;;;;;;2.25;1.30;;;;;;;-4.12;70.08;97173.81;5047178;28;20424;-57
2024/01/17 00:22:11;;;;;;;4.75;2.40;;;;;;;-3.89;70.01;97210.63;5062349;28;20144;-55
2024/01/17 00:27:25;;;;;;;5.10;2.65;;;;;;;-3.86;69.31;97215.63;5071264;28;20084;-56
2024/01/17 00:29:57;;;;;;;3.42;1.80;;;;;;;-4.08;69.77;97188.13;5046130;28;20051;-55
2024/01/17 00:32:27;;;;;;;3.08;1.73;;;;;;;-3.88;69.60;97219.91;5059162;28;20067;-56
2024/01/17 00:35:12;;;;;;;6.32;2.45;;;;;;;-3.88;69.44;97226.69;5056467;28;20051;-56
2024/01/17 00:37:38;;;;;;;6.25;2.60;;;;;;;-3.90;69.74;97230.94;5061211;28;20067;-57
2024/01/17 00:40:24;;;;;;;6.53;2.15;;;;;;;-3.85;69.82;97230.00;5044210;28;20041;-59
2024/01/17 00:42:50;;;;;;;3.92;1.88;;;;;;;-4.03;69.82;97215.06;5057040;28;20044;-56
2024/01/17 00:45:16;;;;;;;3.55;1.45;;;;;;;-3.87;69.86;97244.41;5038535;28;20590;-53
2024/01/17 00:48:01;;;;;;;6.63;2.65;;;;;;;-3.79;70.07;97240.91;5046210;28;20057;-59
2024/01/17 00:50:46;;;;;;;5.38;2.88;;;;;;;-3.88;68.95;97252.06;5061721;28;20553;-54
2024/01/17 00:56:16;;;;;;;9.82;3.10;;;;;;;-4.30;67.34;97229.06;5063048;28;20512;-57
2024/01/17 00:58:42;;;;;;;6.40;2.85;;;;;;;-4.30;66.43;97269.63;5040523;28;20067;-53
2024/01/17 01:03:54;;;;;;;4.50;2.22;;;;;;;-4.48;65.91;97262.28;5048414;28;20047;-56
2024/01/17 01:06:20;;;;;;;9.77;3.70;;;;;;;-4.52;65.57;97275.00;5060022;28;20070;-58
2024/01/17 01:08:46;;;;;;;6.13;2.53;;;;;;;-4.51;66.37;97292.75;5058191;28;20045;-52
2024/01/17 01:11:12;;;;;;;9.30;2.95;;;;;;;-4.45;66.48;97300.25;5062640;28;20531;-62
2024/01/17 01:13:38;;;;;;;7.80;3.28;;;;;;;-4.61;66.25;97283.59;5076198;28;20512;-58
2024/01/17 01:16:42;;;;;;;7.38;3.97;;;;;;;-4.73;65.36;97304.84;5057252;28;20034;-54
2024/01/17 01:19:08;;;;;;;6.72;3.20;;;;;;;-4.91;65.47;97291.53;5046616;28;20044;-54
2024/01/17 01:21:34;;;;;;;7.68;3.10;;;;;;;-4.92;65.86;97292.44;5030178;28;20044;-56
2024/01/17 01:24:00;;;;;;;5.57;2.60;;;;;;;-5.13;66.10;97266.47;5030312;28;20051;-55
2024/01/17 01:26:45;;;;;;;4.40;2.42;;;;;;;-5.03;66.42;97302.69;5028001;28;20044;-56
2024/01/17 01:29:11;;;;;;;7.85;2.85;;;;;;;-5.09;66.25;97307.81;5046576;28;20040;-57
2024/01/17 01:31:37;;;;;;;6.20;2.95;;;;;;;-5.29;65.87;97284.41;5059498;28;20048;-56
2024/01/17 01:34:03;;;;;;;3.65;1.58;;;;;;;-5.42;66.16;97282.84;5032809;28;20501;-51
2024/01/17 01:39:15;;;;;;;7.90;3.75;;;;;;;-5.49;66.23;97283.75;5062940;28;20059;-57
2024/01/17 01:41:41;;;;;;;4.75;2.50;;;;;;;-5.49;66.55;97283.75;5044849;28;20113;-52
2024/01/17 01:44:26;;;;;;;7.78;3.45;;;;;;;-5.21;66.86;97323.97;5061557;28;20040;-55
2024/01/17 01:47:11;;;;;;;5.60;2.05;;;;;;;-5.29;66.74;97292.00;5066961;28;20063;-57
2024/01/17 01:49:55;;;;;;;6.05;2.88;;;;;;;-5.22;66.36;97329.88;5058010;28;20033;-57
2024/01/17 01:52:43;;;;;;;9.65;2.80;;;;;;;-5.41;66.09;97302.22;5061511;28;20591;-55
2024/01/17 01:55:09;;;;;;;7.47;3.95;;;;;;;-5.23;66.73;97333.25;5028925;28;20106;-53
2024/01/17 01:57:37;;;;;;;7.85;2.63;;;;;;;-5.18;66.94;97340.84;5045013;28;20565;-55
2024/01/17 02:05:33;;;;;;;8.35;4.18;;;;;;;-5.45;66.62;97328.44;5075933;28;20041;-54
2024/01/17 02:08:01;;;;;;;6.43;2.70;;;;;;;-5.42;67.44;97334.31;5059845;28;20056;-56
2024/01/17 02:10:27;;;;;;;8.80;3.20;;;;;;;-5.37;67.56;97346.91;5012081;28;20044;-53
2024/01/17 02:12:54;;;;;;;8.70;4.00;;;;;;;-5.77;67.22;97311.84;5025226;28;20087;-57
2024/01/17 02:18:08;;;;;;;9.10;2.88;;;;;;;-5.46;67.67;97367.25;5066281;28;20412;-56
2024/01/17 02:21:02;;;;;;;3.97;2.47;;;;;;;-5.50;67.75;97373.19;5064232;28;20052;-56
2024/01/17 02:23:29;;;;;;;9.27;2.50;;;;;;;-5.47;68.28;97381.59;5064112;28;20032;-55
2024/01/17 02:25:57;;;;;;;5.28;2.63;;;;;;;-5.49;68.33;97379.91;5033387;28;20052;-58
2024/01/17 02:28:44;;;;;;;;;;;;;;;-5.47;68.43;97371.47;5067779;28;20036;-53
2024/01/17 02:31:13;;;;;;;2.58;1.80;;;;;;;-5.50;68.67;97393.44;5047120;28;19922;-52
2024/01/17 02:33:58;;;;;;;11.73;3.38;;;;;;;-5.54;68.35;97392.59;5048088;28;20036;-56
2024/01/17 02:36:43;;;;;;;7.60;2.85;;;;;;;-5.62;69.03;97407.88;5073724;28;20394;-56
2024/01/17 02:39:11;;;;;;;8.77;3.22;;;;;;;-5.62;68.66;97407.88;5067068;28;20032;-57
2024/01/17 02:41:38;;;;;;;3.85;2.17;;;;;;;-5.64;68.95;97411.25;5063757;28;20048;-56
2024/01/17 02:44:04;;;;;;;3.80;1.83;;;;;;;-5.97;68.67;97361.78;5066625;28;20051;-56
2024/01/17 02:46:31;;;;;;;6.13;2.50;;;;;;;-5.70;68.89;97413.81;5047643;28;20148;-57
2024/01/17 02:48:57;;;;;;;3.45;1.63;;;;;;;-5.74;68.71;97414.69;5046601;28;20036;-54
2024/01/17 02:51:23;;;;;;;5.57;2.92;;;;;;;-5.81;69.41;97438.38;5061028;28;20051;-55
2024/01/17 02:53:50;;;;;;;5.75;2.60;;;;;;;-5.90;68.78;97425.78;5046456;28;20045;-57
2024/01/17 02:56:16;;;;;;;6.28;2.65;;;;;;;-6.09;68.77;97390.50;5047681;28;20040;-53
2024/01/17 02:58:46;;;;;;;9.23;2.78;;;;;;;-5.83;68.83;97440.06;5064834;28;20131;-57
2024/01/17 03:01:16;;;;;;;3.38;1.98;;;;;;;-5.83;68.59;97440.06;5061706;28;20036;-54
2024/01/17 03:04:02;;;;;;;6.72;2.90;;;;;;;-5.81;68.47;97453.53;5047054;28;20064;-54
2024/01/17 03:06:28;;;;;;;10.80;3.25;;;;;;;-5.91;68.11;97449.41;5062106;28;20048;-60
2024/01/17 03:08:54;;;;;;;5.00;2.53;;;;;;;-5.98;67.99;97452.81;5048890;28;20037;-52
2024/01/17 03:11:21;;;;;;;7.57;3.42;;;;;;;-6.01;67.56;97463.78;5062591;28;20106;-57
2024/01/17 03:13:47;;;;;;;7.90;4.45;;;;;;;-6.09;67.02;97475.63;5046875;28;20052;-54
2024/01/17 03:16:16;;;;;;;6.05;1.73;;;;;;;-6.20;66.59;97469.78;5065375;28;20048;-56
2024/01/17 03:19:01;;;;;;;3.63;2.17;;;;;;;-6.26;66.44;97478.22;5073912;28;20508;-52
2024/01/17 03:21:27;;;;;;;5.65;2.38;;;;;;;-6.31;66.43;97466.44;5040639;28;20561;-53
2024/01/17 03:23:58;;;;;;;6.90;1.92;;;;;;;-6.30;66.43;97475.72;5030744;28;20143;-57
2024/01/17 03:26:24;;;;;;;3.97;2.38;;;;;;;-6.40;66.18;97489.22;5047050;28;20044;-55
2024/01/17 03:28:51;;;;;;;3.75;2.15;;;;;;;-6.45;66.75;97487.56;5058289;28;20513;-53
2024/01/17 03:31:36;;;;;;;3.47;2.15;;;;;;;-6.47;66.27;97480.81;5064305;28;20041;-55
2024/01/17 03:34:02;;;;;;;6.63;2.83;;;;;;;-6.45;66.74;97485.03;5079968;28;20047;-56
2024/01/17 03:36:47;;;;;;;4.43;2.53;;;;;;;-6.35;66.40;97508.59;5063362;28;20461;-56
2024/01/17 03:39:32;;;;;;;7.32;3.70;;;;;;;-6.43;67.28;97505.22;5053310;28;20041;-57
2024/01/17 03:41:59;;;;;;;5.80;2.08;;;;;;;-6.71;66.88;97469.09;5064822;28;20028;-56
2024/01/17 03:44:25;;;;;;;6.03;2.63;;;;;;;-6.57;66.81;97512.00;5063882;28;20051;-54
2024/01/17 03:46:51;;;;;;;3.92;2.03;;;;;;;-6.52;67.93;97512.84;5048233;28;20040;-56
2024/01/17 03:49:17;;;;;;;7.03;2.97;;;;;;;-6.81;68.25;97487.63;5028469;28;20105;-58
2024/01/17 03:51:43;;;;;;;6.82;2.63;;;;;;;-6.75;68.42;97500.22;5061578;28;20054;-57
2024/01/17 03:54:09;;;;;;;7.35;2.58;;;;;;;-6.58;68.64;97538.09;5063595;28;20044;-52
2024/01/17 03:56:35;;;;;;;5.57;2.20;;;;;;;-6.82;68.49;97505.31;5060552;28;20615;-60
2024/01/17 03:59:20;;;;;;;6.32;2.05;;;;;;;-6.93;68.66;97520.47;5061245;28;20040;-54
2024/01/17 04:02:05;;;;;;;2.90;1.85;;;;;;;-6.84;68.56;97563.38;5064846;28;20068;-55
2024/01/17 04:04:31;;;;;;;2.72;1.27;;;;;;;-6.91;69.04;97575.16;5058438;28;20043;-52
2024/01/17 04:06:57;;;;;;;3.92;1.45;;;;;;;-7.36;69.01;97509.50;5078781;28;20048;-58
2024/01/17 04:09:24;;;;;;;7.38;2.63;;;;;;;-6.89;69.30;97588.66;5035516;28;20040;-57
2024/01/17 04:11:50;;;;;;;7.88;2.40;;;;;;;-7.16;68.92;97548.22;5053921;28;20045;-54
2024/01/17 04:14:16;;;;;;;5.15;1.60;;;;;;;-6.88;68.98;97592.88;5064724;28;20044;-55
2024/01/17 04:16:42;;;;;;;8.77;2.58;;;;;;;-6.93;68.17;97594.53;5064191;28;20051;-54
2024/01/17 04:19:27;;;;;;;4.47;2.13;;;;;;;-6.96;68.27;97592.00;5070614;28;20122;-57
2024/01/17 04:21:57;;;;;;;7.57;2.38;;;;;;;-6.90;68.27;97604.63;5037701;28;20033;-56
2024/01/17 04:24:24;;;;;;;2.42;1.48;;;;;;;-6.85;67.54;97604.63;5063668;28;20068;-52
2024/01/17 04:26:50;;;;;;;4.70;2.30;;;;;;;-6.99;67.61;97618.94;5061779;28;20155;-57
2024/01/17 04:29:16;;;;;;;3.55;1.40;;;;;;;-7.02;67.35;97614.75;5061260;28;20041;-57
2024/01/17 04:31:42;;;;;;;3.40;2.10;;;;;;;-7.26;67.33;97584.38;5062772;28;20051;-57
2024/01/17 04:34:08;;;;;;;2.05;1.50;;;;;;;-7.55;66.69;97546.50;5047371;28;20543;-57
2024/01/17 04:36:34;;;;;;;2.55;1.75;;;;;;;-7.18;67.06;97634.91;5046682;28;20036;-56
2024/01/17 04:39:01;;;;;;;6.32;2.58;;;;;;;-7.18;67.22;97645.00;5064513;28;20461;-56
2024/01/17 04:41:27;;;;;;;4.60;1.95;;;;;;;-7.25;66.67;97653.38;5046230;28;20122;-57
2024/01/17 04:46:38;;;;;;;4.85;2.63;;;;;;;-7.13;66.86;97655.94;5073967;28;20052;-54
2024/01/17 04:49:06;;;;;;;4.65;2.38;;;;;;;-7.15;66.35;97667.72;5089033;28;20041;-53
2024/01/17 04:51:50;;;;;;;9.75;2.92;;;;;;;-7.28;66.59;97676.94;5061403;28;20054;-53
2024/01/17 04:54:16;;;;;;;8.38;3.55;;;;;;;-7.22;66.81;97683.69;5062485;28;20174;-55
2024/01/17 04:56:42;;;;;;;3.33;1.70;;;;;;;-7.57;66.61;97644.00;5044190;28;20060;-54
2024/01/17 04:59:08;;;;;;;6.80;2.50;;;;;;;-7.37;66.52;97681.94;5089805;28;20198;-58
2024/01/17 05:01:35;;;;;;;11.15;3.08;;;;;;;-7.35;66.88;97687.84;5043063;28;20828;-63
2024/01/17 05:04:03;;;;;;;5.50;3.28;;;;;;;-7.43;66.45;97700.41;5034100;28;20402;-62
2024/01/17 05:06:32;;;;;;;3.55;2.08;;;;;;;-7.44;66.09;97698.75;5029752;28;20617;-65
2024/01/17 05:09:19;;;;;;;5.07;2.08;;;;;;;-7.44;66.23;97706.31;5058894;28;20041;-59
2024/01/17 05:11:49;;;;;;;6.65;2.58;;;;;;;-7.34;66.30;97724.88;5046661;28;20427;-62
2024/01/17 05:14:16;;;;;;;7.05;2.38;;;;;;;-7.59;66.29;97677.66;5063068;28;20048;-63
2024/01/17 05:16:42;;;;;;;8.73;3.55;;;;;;;-7.23;66.31;97738.38;5058204;28;20040;-56
2024/01/17 05:19:08;;;;;;;4.75;2.58;;;;;;;-7.29;65.16;97729.09;5059836;28;20562;-57
2024/01/17 05:21:35;;;;;;;4.22;2.08;;;;;;;-7.29;65.89;97741.72;5061533;28;20052;-58
2024/01/17 05:26:47;;;;;;;5.85;2.90;;;;;;;-7.29;66.11;97756.00;5065290;28;20139;-58
2024/01/17 05:29:14;;;;;;;5.80;2.60;;;;;;;-7.22;65.39;97767.81;5069462;28;20043;-58
2024/01/17 05:31:40;;;;;;;7.03;1.67;;;;;;;-7.32;64.46;97768.59;5067245;28;20075;-57
2024/01/17 05:34:06;;;;;;;7.60;3.22;;;;;;;-7.41;63.77;97766.03;5073888;28;20496;-57
2024/01/17 05:36:33;;;;;;;4.25;2.10;;;;;;;-7.25;63.92;97772.84;5055463;28;20072;-57
2024/01/17 05:38:59;;;;;;;7.05;2.38;;;;;;;-7.31;63.46;97786.28;5061006;28;20086;-54
2024/01/17 05:41:44;;;;;;;3.60;1.75;;;;;;;-7.34;62.98;97793.84;5058173;28;20573;-57
2024/01/17 05:44:29;;;;;;;4.55;1.92;;;;;;;-7.35;63.21;97788.78;5090449;28;20051;-55
2024/01/17 05:46:55;;;;;;;3.63;1.52;;;;;;;-7.55;63.22;97755.03;5059953;28;20512;-55
2024/01/17 05:49:43;;;;;;;7.25;2.47;;;;;;;-7.34;64.65;97798.03;5071050;28;20041;-57
2024/01/17 05:52:10;;;;;;;5.07;2.08;;;;;;;-7.35;63.42;97792.16;5059893;28;20151;-55
2024/01/17 05:54:39;;;;;;;2.95;1.88;;;;;;;-7.40;63.62;97792.97;5060181;28;20098;-58
2024/01/17 05:57:06;;;;;;;1.50;1.17;;;;;;;-7.31;63.34;97798.06;5060036;28;20789;-63
2024/01/17 05:59:33;;;;;;;8.13;2.20;;;;;;;-7.40;62.85;97803.06;5059734;28;20497;-53
2024/01/17 06:01:59;;;;;;;8.10;2.85;;;;;;;-7.53;62.64;97818.94;5063979;28;20048;-59
2024/01/17 06:04:25;;;;;;;6.32;2.53;;;;;;;-7.72;62.12;97816.31;5062565;28;20094;-65
2024/01/17 06:06:51;;;;;;;4.82;1.95;;;;;;;-7.69;62.14;97820.50;5045021;28;20056;-60
2024/01/17 06:09:18;;;;;;;4.18;2.13;;;;;;;-7.65;62.62;97814.69;5060473;28;20772;-62
2024/01/17 06:14:30;;;;;;;3.35;1.77;;;;;;;-7.83;61.92;97822.94;5059786;28;20048;-61
2024/01/17 06:16:57;;;;;;;5.03;2.20;;;;;;;-7.65;62.17;97841.56;5060132;28;20036;-62
2024/01/17 06:19:23;;;;;;;5.57;2.35;;;;;;;-7.73;62.08;97833.94;5056083;28;20405;-62
2024/01/17 06:22:07;;;;;;;7.93;2.65;;;;;;;-7.78;62.33;97835.56;5088675;28;20461;-62
2024/01/17 06:24:34;;;;;;;4.57;2.17;;;;;;;-7.88;61.91;97808.59;5061634;28;20048;-61
2024/01/17 06:30:04;;;;;;;7.30;1.88;;;;;;;-7.63;62.37;97835.69;5061947;28;20044;-62
2024/01/17 06:32:50;;;;;;;4.22;1.38;;;;;;;-7.90;62.80;97827.94;5047514;28;20040;-60
2024/01/17 06:35:16;;;;;;;5.60;2.95;;;;;;;-7.76;62.61;97856.63;5058924;28;20049;-61
2024/01/17 06:38:20;;;;;;;5.00;1.77;;;;;;;-7.77;62.35;97873.41;5086542;28;20051;-56
2024/01/17 06:40:46;;;;;;;5.47;2.22;;;;;;;-7.61;62.95;97871.88;5064649;28;20041;-54
2024/01/17 06:43:13;;;;;;;3.92;2.10;;;;;;;-7.73;63.60;97839.81;5044162;28;20051;-56
2024/01/17 06:45:42;;;;;;;5.95;2.15;;;;;;;-7.61;63.02;97884.47;5042935;28;20040;-58
2024/01/17 06:48:08;;;;;;;10.70;2.30;;;;;;;-7.47;63.75;97882.91;5061787;28;20045;-56
2024/01/17 06:50:35;;;;;;;5.38;2.75;;;;;;;-7.50;63.35;97856.81;5056561;28;20056;-52
2024/01/17 06:53:01;;;;;;;9.02;2.63;;;;;;;-7.16;63.28;97899.09;5057861;28;20123;-55
2024/01/17 06:55:28;;;;;;;11.80;3.28;;;;;;;-7.07;63.45;97899.19;5060794;28;20608;-57
2024/01/17 06:57:54;;;;;;;4.45;1.55;;;;;;;-6.98;63.84;97905.97;5054440;28;20037;-57
2024/01/17 07:00:20;;;;;;;2.35;1.38;;;;;;;-7.23;64.58;97911.69;5058136;28;20484;-56
2024/01/17 07:02:47;;;;;;;3.53;1.85;;;;;;;-7.67;65.68;97863.41;5073523;28;20052;-56
2024/01/17 07:05:13;;;;;;;1.52;0.88;;;;;;;-7.45;65.88;97913.22;5056755;28;20169;-59
2024/01/17 07:07:39;;;;;;;3.88;2.00;;;;;;;-7.57;68.32;97924.03;5066355;28;20044;-57
2024/01/17 07:10:06;;;;;;;4.05;1.98;;;;;;;-7.65;67.98;97897.06;5066060;28;20663;-58
2024/01/17 07:12:32;;;;;;;3.88;1.50;;;;;;;-7.59;67.30;97930.75;5066019;28;20044;-56
2024/01/17 07:14:57;;;;;;;2.88;1.17;;;;;;;-7.57;67.50;97931.59;5062348;28;20397;-60
2024/01/17 07:17:23;;;;;;;3.55;1.58;;;;;;;-7.56;67.00;97935.81;5057229;28;20067;-57
2024/01/17 07:19:49;;;;;;;5.78;2.20;;;;;;;-7.57;67.21;97943.38;5065015;28;20044;-60
2024/01/17 07:22:15;;;;;;;5.68;1.58;;;;;;;-7.39;67.21;97943.53;5063849;28;20825;-56
2024/01/17 07:25:00;;;;;;;6.05;2.15;;;;;;;-7.27;67.03;97964.66;5047489;28;20055;-58
2024/01/17 07:27:26;;;;;;;7.10;2.35;;;;;;;-7.35;67.19;97956.19;5059314;28;20040;-58
2024/01/17 07:30:11;;;;;;;4.30;1.77;;;;;;;-7.52;67.03;97926.59;5064932;28;20484;-58
2024/01/17 07:32:38;;;;;;;3.50;1.40;;;;;;;-7.39;66.81;97929.25;5062883;28;20501;-58
2024/01/17 07:35:07;;;;;;;2.72;0.90;;;;;;;-7.35;67.05;97978.91;5060900;28;20123;-58
2024/01/17 07:37:33;;;;;;;;;;;;;;;-7.27;67.15;97973.91;5086558;28;20040;-57
2024/01/17 07:39:59;;;;;;;4.97;2.25;;;;;;;-7.44;66.98;97977.97;5058393;28;19916;-60
2024/01/17 07:42:43;;;;;;;8.02;2.15;;;;;;;-7.11;67.06;97980.75;5048236;28;20051;-63
2024/01/17 07:45:12;;;;;;;4.55;1.92;;;;;;;-6.98;65.87;97997.72;5064816;28;20074;-59
2024/01/17 07:47:38;;;;;;;4.75;1.80;;;;;;;-7.18;64.63;97993.34;5064526;28;20048;-57
2024/01/17 07:50:05;;;;;;;3.88;1.42;;;;;;;-7.21;64.79;98001.72;5066728;28;20081;-59
2024/01/17 07:52:31;;;;;;;1.75;1.42;;;;;;;-7.18;65.13;98000.91;5060643;28;20131;-58
2024/01/17 07:54:57;;;;;;;3.88;2.08;;;;;;;-7.36;66.07;97977.22;5061763;28;20056;-59
2024/01/17 07:57:23;;;;;;;4.28;1.75;;;;;;;-6.89;65.87;98017.13;5089334;28;20123;-57
2024/01/17 08:00:08;;;;;;;3.97;1.98;;;;;;;-6.95;64.90;98022.13;5063402;28;20066;-58
2024/01/17 08:02:40;;;;;;;6.53;2.70;;;;;;;-7.01;64.90;98030.50;5061730;28;20093;-58
2024/01/17 08:05:06;;;;;;;5.30;1.73;;;;;;;-7.12;64.48;98048.94;5060160;28;20526;-57
2024/01/17 08:07:33;;;;;;;2.67;1.52;;;;;;;-7.14;64.70;98050.59;5059524;28;20154;-58
2024/01/17 08:09:59;;;;;;;4.35;1.67;;;;;;;-7.21;64.23;98077.44;5076957;28;20112;-56
2024/01/17 08:12:25;;;;;;;6.63;1.77;;;;;;;-7.46;64.51;98085.59;5063956;28;20045;-55
2024/01/17 08:14:51;;;;;;;10.82;3.05;;;;;;;-7.37;64.20;98088.22;5061223;28;20044;-57
2024/01/17 08:17:36;;;;;;;5.00;1.92;;;;;;;-7.36;63.15;98095.81;5058831;28;20036;-53
2024/01/17 08:20:21;;;;;;;6.55;2.25;;;;;;;-7.36;63.47;98097.50;5064106;28;20126;-58
2024/01/17 08:25:32;;;;;;;3.97;1.75;;;;;;;-7.41;62.21;98081.47;5059337;28;20795;-57
2024/01/17 08:28:17;;;;;;;6.75;1.83;;;;;;;-7.28;62.38;98071.53;5058530;28;20425;-58
2024/01/17 08:31:03;;;;;;;1.98;1.42;;;;;;;-7.12;61.57;98059.03;5062937;28;20037;-58
2024/01/17 08:33:29;;;;;;;2.75;1.05;;;;;;;-6.98;61.15;98107.97;5064213;28;20075;-58
2024/01/17 08:35:56;;;;;;;5.68;1.67;;;;;;;-7.08;61.10;98113.78;5047186;28;20060;-55
2024/01/17 08:38:21;;;;;;;7.28;2.53;;;;;;;-7.24;60.71;98082.47;5063231;28;20045;-60
2024/01/17 08:40:47;;;;;;;5.28;2.15;;;;;;;-6.93;60.80;98129.94;5063843;28;20058;-56
2024/01/17 08:43:13;;;;;;;4.07;1.30;;;;;;;-7.01;61.10;98140.75;5060217;28;20040;-57
2024/01/17 08:45:39;;;;;;;4.75;1.63;;;;;;;-7.48;60.61;98110.81;5060979;28;20086;-58
2024/01/17 08:48:05;;;;;;;3.05;1.45;;;;;;;-7.21;60.38;98153.19;5063987;28;20044;-59
2024/01/17 08:50:32;;;;;;;4.60;1.88;;;;;;;-7.20;60.67;98164.13;5064809;28;20052;-56
2024/01/17 08:52:58;;;;;;;8.57;2.13;;;;;;;-7.39;59.83;98125.22;5060743;28;20094;-57
2024/01/17 08:55:24;;;;;;;6.75;1.90;;;;;;;-7.06;60.21;98177.75;5062688;28;20036;-58
2024/01/17 08:57:50;;;;;;;5.78;2.22;;;;;;;-7.32;59.22;98174.94;5071549;28;20486;-57
2024/01/17 09:00:16;;;;;;;2.30;1.08;;;;;;;-7.40;59.18;98176.53;5047619;28;20128;-56
2024/01/17 09:03:00;;;;;;;4.20;1.35;;;;;;;-7.80;59.06;98148.25;5062314;28;20405;-61
2024/01/17 09:05:27;;;;;;;2.05;1.10;;;;;;;-7.79;58.87;98186.94;5061347;28;20051;-58
2024/01/17 09:07:53;;;;;;;2.22;1.00;;;;;;;-8.05;58.77;98143.72;5060383;28;20040;-57
2024/01/17 09:10:20;;;;;;;1.48;0.90;;;;;;;-7.87;59.00;98145.66;5055656;28;20491;-59
2024/01/17 09:13:04;;;;;;;6.95;2.00;;;;;;;-7.82;58.54;98156.66;5061443;28;20055;-58
2024/01/17 09:15:30;;;;;;;1.05;0.57;;;;;;;-7.39;58.52;98201.78;5061795;28;20509;-56
2024/01/17 09:18:17;;;;;;;2.03;1.50;;;;;;;-7.33;58.41;98209.41;5059068;28;20051;-55
2024/01/17 09:20:47;;;;;;;3.72;1.73;;;;;;;-7.46;58.51;98214.31;5059783;28;20542;-54
2024/01/17 09:23:13;;;;;;;5.43;1.98;;;;;;;-7.23;58.26;98220.50;5062157;28;20045;-59
2024/01/17 09:25:39;;;;;;;4.57;2.00;;;;;;;-7.01;58.66;98226.63;5061481;28;20054;-56
2024/01/17 09:28:23;;;;;;;6.38;2.25;;;;;;;-6.88;58.20;98216.69;5064045;28;20431;-59
2024/01/17 09:30:49;;;;;;;4.72;2.30;;;;;;;-6.92;58.11;98230.13;5060619;28;20051;-57
2024/01/17 09:33:15;;;;;;;3.70;1.88;;;;;;;-6.87;58.09;98235.22;5056870;28;20040;-56
2024/01/17 09:35:44;;;;;;;3.03;1.42;;;;;;;-6.61;58.37;98235.50;5062220;28;20072;-56
2024/01/17 09:38:12;;;;;;;7.28;2.17;;;;;;;-6.82;58.12;98242.84;5060938;28;20043;-56
2024/01/17 09:40:40;;;;;;;4.20;1.38;;;;;;;-7.00;58.11;98248.53;5077856;28;20143;-59
2024/01/17 09:43:06;;;;;;;4.05;1.60;;;;;;;-7.10;58.16;98231.56;5061821;28;20044;-59
2024/01/17 09:45:54;;;;;;;4.80;1.25;;;;;;;-7.10;58.30;98247.56;5062405;28;20387;-60
2024/01/17 09:48:21;;;;;;;1.95;1.10;;;;;;;-7.17;57.89;98260.13;5076166;28;20420;-55
2024/01/17 09:50:48;;;;;;;2.67;1.50;;;;;;;-7.30;57.78;98264.16;5090830;28;20040;-56
2024/01/17 09:53:16;;;;;;;4.07;2.05;;;;;;;-7.09;58.12;98263.56;5062973;28;20053;-54
2024/01/17 09:55:44;;;;;;;7.40;2.47;;;;;;;-6.77;58.00;98264.81;5061043;28;20056;-57
2024/01/17 09:58:12;;;;;;;3.38;2.03;;;;;;;-6.51;58.16;98267.59;5062515;28;20126;-58
2024/01/17 10:00:41;;;;;;;2.53;1.20;;;;;;;-7.21;56.78;98180.94;5030323;28;20056;-54
2024/01/17 10:03:07;;;;;;;3.00;1.83;;;;;;;-7.39;57.95;98216.94;5059584;28;20536;-58
2024/01/17 10:05:54;;;;;;;4.28;2.35;;;;;;;-7.27;59.21;98290.28;5058812;28;20530;-56
2024/01/17 10:08:20;;;;;;;7.70;1.67;;;;;;;-7.27;59.15;98233.88;5085971;28;20119;-55
2024/01/17 10:10:46;;;;;;;2.85;1.25;;;;;;;-7.19;57.78;98295.44;5091105;28;20045;-55
2024/01/17 10:13:31;;;;;;;2.17;1.15;;;;;;;-7.43;58.20;98290.88;5061152;28;20043;-59
2024/01/17 10:15:59;;;;;;;5.40;0.88;;;;;;;-7.37;58.22;98298.56;5057901;28;20792;-58
2024/01/17 10:18:25;;;;;;;7.47;0.98;;;;;;;-7.36;57.94;98281.72;5054273;28;20036;-56
2024/01/17 10:20:51;;;;;;;3.67;0.52;;;;;;;-7.21;57.67;98292.03;5057654;28;20036;-56
2024/01/17 10:23:17;;;;;;;4.90;2.22;;;;;;;-7.00;57.57;98309.13;5091269;28;20067;-55
2024/01/17 10:25:43;;;;;;;1.63;1.02;;;;;;;-7.01;57.06;98305.75;5059420;28;20166;-54
2024/01/17 10:28:32;;;;;;;2.97;1.02;;;;;;;-7.43;57.79;98275.75;5083881;28;20044;-60
2024/01/17 10:30:58;;;;;;;3.17;1.00;;;;;;;-7.02;58.28;98321.75;5061095;28;20123;-54
2024/01/17 10:33:24;;;;;;;3.00;1.55;;;;;;;-7.20;58.04;98328.22;5063776;28;20512;-57
2024/01/17 10:35:50;;;;;;;1.70;1.10;;;;;;;-7.49;56.62;98341.28;5063039;28;20036;-55
2024/01/17 10:38:16;;;;;;;2.45;1.05;;;;;;;-7.77;57.52;98336.63;5048727;28;20048;-56
2024/01/17 10:43:27;;;;;;;2.65;1.05;;;;;;;-7.77;57.86;98351.75;5062806;28;20052;-55
2024/01/17 10:45:55;;;;;;;1.75;0.43;;;;;;;-7.72;57.49;98352.69;5034119;28;20528;-59
2024/01/17 10:48:39;;;;;;;1.90;0.93;;;;;;;-7.65;57.42;98358.69;5085970;28;20131;-57
2024/01/17 10:51:06;;;;;;;4.50;1.58;;;;;;;-7.56;57.40;98359.69;5094152;28;20273;-57
2024/01/17 10:53:32;;;;;;;3.95;1.80;;;;;;;-7.39;57.36;98360.78;5061453;28;20043;-57
2024/01/17 10:56:02;;;;;;;5.13;1.85;;;;;;;-7.42;57.72;98358.19;5063890;28;20048;-55
2024/01/17 10:58:30;;;;;;;4.07;1.60;;;;;;;-7.16;57.54;98353.53;5091495;28;20060;-57
2024/01/17 11:01:45;;;;;;;1.92;1.10;;;;;;;-6.95;57.70;98366.44;5057306;28;20036;-56
2024/01/17 11:04:30;;;;;;;8.00;2.25;;;;;;;-6.99;57.44;98368.91;5049598;28;20709;-58
2024/01/17 11:06:57;;;;;;;1.98;1.42;;;;;;;-7.14;57.23;98351.03;5047618;28;20115;-57
2024/01/17 11:09:24;;;;;;;1.58;0.80;;;;;;;-7.00;57.38;98375.66;5032253;28;20052;-59
2024/01/17 11:14:35;;;;;;;3.45;1.00;;;;;;;-7.50;56.72;98349.69;5064159;28;20059;-59
2024/01/17 11:17:03;;;;;;;3.38;1.15;;;;;;;-7.28;56.51;98404.72;5047784;28;20044;-56
2024/01/17 11:19:33;;;;;;;2.70;1.00;;;;;;;-7.35;56.38;98413.00;5060201;28;20074;-57
2024/01/17 11:22:03;;;;;;;2.85;1.17;;;;;;;-7.49;56.58;98401.84;5060949;28;20082;-55
2024/01/17 11:24:53;;;;;;;2.92;1.67;;;;;;;-7.60;56.86;98410.06;5063013;28;20482;-56
2024/01/17 11:27:50;;;;;;;0.98;0.52;;;;;;;-7.49;57.01;98411.94;5063172;28;20508;-53
2024/01/17 11:30:28;;;;;;;3.08;1.52;;;;;;;-7.38;56.85;98433.13;5073511;28;20117;-52
2024/01/17 11:33:02;;;;;;;5.22;1.13;;;;;;;-7.46;56.42;98422.06;5064059;28;20048;-55
2024/01/17 11:35:50;;;;;;;3.03;1.30;;;;;;;-7.34;56.87;98439.97;5060387;28;20082;-55
2024/01/17 11:38:23;;;;;;;3.03;1.48;;;;;;;-7.14;56.64;98440.25;5061599;28;20036;-52
2024/01/17 11:40:58;;;;;;;2.65;1.52;;;;;;;-6.99;56.82;98443.00;5065739;28;20050;-52
2024/01/17 11:43:42;;;;;;;5.38;1.40;;;;;;;-6.98;56.86;98448.91;5063790;28;20482;-56
2024/01/17 11:46:09;;;;;;;2.88;1.38;;;;;;;-7.04;56.10;98458.91;5061051;28;20059;-58
2024/01/17 11:48:38;;;;;;;2.30;1.30;;;;;;;-7.12;55.94;98456.28;5060483;28;20051;-56
2024/01/17 11:51:15;;;;;;;7.73;2.00;;;;;;;-7.08;55.62;98458.03;5062665;28;20037;-58
2024/01/17 11:53:50;;;;;;;2.40;1.02;;;;;;;-7.24;56.38;98443.47;5062015;28;20290;-56
2024/01/17 11:56:20;;;;;;;1.73;0.98;;;;;;;-6.97;56.64;98468.31;5063966;28;20039;-57
2024/01/17 11:58:48;;;;;;;3.55;1.33;;;;;;;-6.74;55.33;98478.72;5073780;28;20806;-59
2024/01/17 12:01:18;;;;;;;2.78;1.30;;;;;;;-6.27;54.74;98482.75;5045494;28;20037;-57
2024/01/17 12:12:01;;;;;;;3.50;1.20;;;;;;;-5.64;52.25;98512.13;5064552;28;20095;-58
2024/01/17 12:14:27;;;;;;;2.70;1.40;;;;;;;-5.85;53.08;98511.88;5058741;28;20478;-57
2024/01/17 12:16:53;;;;;;;3.75;1.70;;;;;;;-6.61;52.66;98447.75;5061143;28;20090;-59
2024/01/17 12:19:38;;;;;;;3.33;1.10;;;;;;;-6.72;54.00;98509.94;5047752;28;20042;-57
2024/01/17 12:22:04;;;;;;;2.42;1.70;;;;;;;-7.25;53.83;98446.81;5064048;28;20051;-58
2024/01/17 12:24:30;;;;;;;3.22;0.65;;;;;;;-6.98;53.94;98528.06;5063928;28;20423;-56
2024/01/17 12:26:55;;;;;;;3.15;1.25;;;;;;;-7.05;53.71;98535.50;5062350;28;20044;-57
2024/01/17 12:29:22;;;;;;;3.22;1.50;;;;;;;-7.02;54.34;98549.06;5044637;28;20044;-58
2024/01/17 12:31:48;;;;;;;2.95;0.80;;;;;;;-6.96;54.87;98544.06;5056810;28;20032;-57
2024/01/17 12:34:14;;;;;;;1.98;1.00;;;;;;;-6.98;54.62;98553.31;5070857;28;20397;-56
2024/01/17 12:36:40;;;;;;;3.90;1.23;;;;;;;-7.03;53.90;98557.44;5061624;28;20068;-57
2024/01/17 12:39:25;;;;;;;4.82;1.33;;;;;;;-7.09;53.67;98564.06;5057741;28;20044;-58